Time;durP1;ratioP1;P1;durP2;ratioP2;P2;SDS_P1;SDS_P2;PMS_P1;PMS_P2;Temp;Humidity;BMP_temperature;BMP_pressure;BME280_temperature;BME280_humidity;BME280_pressure;Samples;Min_cycle;Max_cycle;Signal;HPM_P1;HPM_P2
2022/09/15 00:00:26;;;;;;;22.70;13.90;;;;;;;15.11;84.52;99240.47;1820622;78;26521;-81
2022/09/15 00:02:54;;;;;;;18.35;12.82;;;;;;;15.10;84.59;99244.22;1818433;78;25761;-81
2022/09/15 00:05:21;;;;;;;23.02;14.33;;;;;;;15.09;84.70;99243.42;1819416;78;27439;-79
2022/09/15 00:07:47;;;;;;;20.35;13.50;;;;;;;15.10;84.81;99240.17;1819029;78;25775;-80
2022/09/15 00:10:13;;;;;;;21.55;13.40;;;;;;;15.08;84.93;99238.25;1825126;78;26030;-81
2022/09/15 00:12:40;;;;;;;20.23;13.75;;;;;;;15.07;84.89;99252.30;1824041;78;25856;-80
2022/09/15 00:15:09;;;;;;;21.42;12.95;;;;;;;15.07;84.99;99246.08;1818022;78;25747;-79
2022/09/15 00:17:36;;;;;;;19.80;12.78;;;;;;;15.07;85.10;99246.08;1820187;78;27461;-81
2022/09/15 00:20:05;;;;;;;17.85;12.63;;;;;;;15.06;85.12;99247.13;1813745;78;26419;-83
2022/09/15 00:22:31;;;;;;;18.52;13.20;;;;;;;15.03;85.10;99247.12;1825394;78;25815;-81
2022/09/15 00:24:57;;;;;;;18.48;13.10;;;;;;;15.00;85.03;99240.86;1821310;78;26034;-81
2022/09/15 00:27:24;;;;;;;21.62;13.28;;;;;;;15.00;85.00;99243.55;1820924;78;25804;-81
2022/09/15 00:29:51;;;;;;;20.90;13.93;;;;;;;14.98;85.18;99245.69;1818433;78;27696;-81
2022/09/15 00:32:17;;;;;;;21.37;13.68;;;;;;;14.97;85.26;99252.13;1808334;78;25714;-81
2022/09/15 00:34:44;;;;;;;17.62;12.63;;;;;;;14.95;85.25;99249.42;1828239;78;25808;-82
2022/09/15 00:37:10;;;;;;;18.77;11.57;;;;;;;14.95;85.26;99244.82;1818183;78;25735;-81
2022/09/15 00:39:36;;;;;;;18.95;13.08;;;;;;;14.95;85.21;99244.82;1814451;78;26104;-82
2022/09/15 00:42:03;;;;;;;20.57;12.33;;;;;;;14.94;85.30;99237.81;1822402;78;27517;-80
2022/09/15 00:44:50;;;;;;;18.40;11.85;;;;;;;14.94;85.33;99224.85;1823152;78;25846;-82
2022/09/15 00:47:20;;;;;;;21.15;12.05;;;;;;;14.94;85.52;99234.29;1817297;78;25686;-81
2022/09/15 00:49:52;;;;;;;17.42;12.00;;;;;;;14.92;85.53;99236.42;1822486;78;26104;-80
2022/09/15 00:52:24;;;;;;;20.43;12.13;;;;;;;14.90;85.59;99238.55;1825382;78;25712;-80
2022/09/15 00:55:09;;;;;;;20.75;12.35;;;;;;;14.88;85.56;99240.16;1823972;78;27458;-79
2022/09/15 00:57:46;;;;;;;14.85;11.57;;;;;;;14.85;85.59;99233.89;1815179;78;25862;-80
2022/09/15 01:00:18;;;;;;;23.52;12.40;;;;;;;14.83;85.61;99233.84;1805540;78;25308;-79
2022/09/15 01:02:47;;;;;;;17.25;12.47;;;;;;;14.80;85.67;99228.41;1828072;78;25786;-80
2022/09/15 01:05:17;;;;;;;16.90;11.57;;;;;;;14.80;85.78;99226.28;1811339;78;25839;-82
2022/09/15 01:08:06;;;;;;;16.32;12.33;;;;;;;14.80;85.97;99227.62;1806126;79;28249;-81
2022/09/15 01:10:37;;;;;;;21.70;13.45;;;;;;;14.80;86.20;99225.72;1800267;79;25825;-81
2022/09/15 01:13:07;;;;;;;;;;;;;;;14.81;86.38;99215.23;1800387;79;25693;-80
2022/09/15 01:15:54;;;;;;;16.07;11.45;;;;;;;14.82;86.57;99208.77;1804843;78;26241;-81
2022/09/15 01:18:53;;;;;;;20.85;11.22;;;;;;;14.81;86.72;99207.67;1808616;79;25817;-81
2022/09/15 01:21:40;;;;;;;15.78;10.90;;;;;;;14.81;86.69;99205.80;1803357;79;27676;-81
2022/09/15 01:24:33;;;;;;;23.25;13.85;;;;;;;14.81;86.68;99200.41;1804183;79;25790;-81
2022/09/15 01:27:14;;;;;;;14.95;10.60;;;;;;;14.79;86.57;99203.06;1803122;79;25729;-81
2022/09/15 01:30:07;;;;;;;17.52;10.93;;;;;;;14.76;86.44;99195.45;1800921;79;26457;-82
2022/09/15 01:33:02;;;;;;;16.65;11.45;;;;;;;14.74;86.40;99189.50;1806601;79;25789;-81
2022/09/15 01:35:47;;;;;;;14.93;11.25;;;;;;;14.69;86.37;99188.92;1804576;79;27991;-82
2022/09/15 01:38:31;;;;;;;16.60;10.68;;;;;;;14.68;86.51;99195.36;1799671;79;26013;-81
2022/09/15 01:41:27;;;;;;;19.87;12.30;;;;;;;14.66;86.73;99197.48;1811125;78;26299;-81
2022/09/15 01:44:07;;;;;;;21.12;11.53;;;;;;;14.66;87.04;99201.01;1800333;78;25779;-81
2022/09/15 01:46:45;;;;;;;18.67;11.57;;;;;;;14.69;87.14;99199.70;1779412;79;25321;-80
2022/09/15 01:49:15;;;;;;;16.75;11.00;;;;;;;14.67;87.14;99193.72;1806413;79;29176;-82
2022/09/15 01:51:44;;;;;;;23.30;11.35;;;;;;;14.66;87.13;99199.66;1802254;79;25936;-82
2022/09/15 01:54:13;;;;;;;19.15;12.30;;;;;;;14.66;87.15;99182.67;1806947;78;25790;-80
2022/09/15 01:56:40;;;;;;;16.80;11.03;;;;;;;14.69;87.33;99190.27;1803304;78;25746;-80
2022/09/15 01:59:09;;;;;;;19.00;11.65;;;;;;;14.69;87.31;99188.37;1809326;78;26378;-80
2022/09/15 02:01:49;;;;;;;14.40;11.03;;;;;;;14.70;87.28;99186.49;1804418;78;27601;-81
2022/09/15 02:04:23;;;;;;;15.93;10.98;;;;;;;14.74;87.32;99188.16;1803388;79;25718;-82
2022/09/15 02:06:55;;;;;;;13.93;10.30;;;;;;;14.73;87.17;99185.19;1813177;78;25852;-80
2022/09/15 02:09:29;;;;;;;13.70;9.58;;;;;;;14.71;87.10;99178.70;1815692;78;25787;-81
2022/09/15 02:12:05;;;;;;;13.75;9.18;;;;;;;14.69;86.93;99174.89;1820999;78;25724;-80
2022/09/15 02:14:52;;;;;;;16.30;9.75;;;;;;;14.67;86.85;99173.50;1823176;77;27453;-81
2022/09/15 02:17:20;;;;;;;14.38;9.70;;;;;;;14.65;86.75;99175.11;1823463;78;25658;-80
2022/09/15 02:19:57;;;;;;;14.55;9.63;;;;;;;14.61;86.73;99173.97;1821991;78;25623;-80
2022/09/15 02:22:28;;;;;;;16.65;9.78;;;;;;;14.60;86.76;99175.58;1814594;78;25627;-82
2022/09/15 02:25:06;;;;;;;12.55;9.40;;;;;;;14.57;86.78;99178.23;1822820;77;25802;-81
2022/09/15 02:27:38;;;;;;;13.88;9.48;;;;;;;14.55;86.87;99175.48;1817620;78;27457;-81
2022/09/15 02:30:09;;;;;;;19.42;9.68;;;;;;;14.53;87.11;99176.27;1823770;77;25719;-79
2022/09/15 02:32:39;;;;;;;14.18;9.60;;;;;;;14.53;87.25;99176.27;1822696;78;25768;-82
2022/09/15 02:35:08;;;;;;;18.60;9.33;;;;;;;14.54;87.39;99176.02;1823680;78;25719;-80
2022/09/15 02:37:37;;;;;;;13.48;8.63;;;;;;;14.53;87.42;99173.05;1822996;78;25723;-81
2022/09/15 02:40:05;;;;;;;12.00;8.35;;;;;;;14.52;87.38;99171.41;1796141;78;27656;-80
2022/09/15 02:42:34;;;;;;;13.48;8.20;;;;;;;14.52;87.44;99174.09;1822831;78;25940;-81
2022/09/15 02:45:01;;;;;;;11.12;8.48;;;;;;;14.51;87.53;99177.87;1822725;77;25801;-81
2022/09/15 02:47:29;;;;;;;10.40;7.92;;;;;;;14.50;87.59;99176.22;1797844;79;25924;-81
2022/09/15 02:49:56;;;;;;;13.05;8.25;;;;;;;14.47;87.63;99173.22;1816013;78;25272;-81
2022/09/15 02:52:23;;;;;;;10.48;7.70;;;;;;;14.47;87.68;99175.91;1824879;77;27981;-85
2022/09/15 02:54:49;;;;;;;11.90;7.75;;;;;;;14.46;87.82;99168.88;1834195;77;26329;-81
2022/09/15 02:57:15;;;;;;;13.65;7.83;;;;;;;14.46;88.00;99161.61;1829612;77;26343;-81
2022/09/15 03:02:27;;;;;;;9.95;7.28;;;;;;;14.47;87.95;99155.70;1800152;79;25871;-82
2022/09/15 03:04:53;;;;;;;10.18;7.72;;;;;;;14.45;87.96;99155.14;1789334;78;27597;-80
2022/09/15 03:07:20;;;;;;;11.22;7.15;;;;;;;14.44;87.90;99150.80;1832954;77;25857;-82
2022/09/15 03:09:46;;;;;;;13.50;7.97;;;;;;;14.43;87.97;99154.05;1817922;78;25815;-80
2022/09/15 03:12:13;;;;;;;14.15;8.95;;;;;;;14.42;88.01;99154.27;1811601;78;25457;-80
2022/09/15 03:14:39;;;;;;;14.45;9.18;;;;;;;14.42;88.13;99155.62;1805995;78;26647;-81
2022/09/15 03:17:05;;;;;;;15.08;8.55;;;;;;;14.42;88.28;99156.96;1812717;78;27455;-82
2022/09/15 03:19:31;;;;;;;13.08;9.18;;;;;;;14.38;88.23;99157.17;1815268;78;26488;-80
2022/09/15 03:21:58;;;;;;;12.82;8.65;;;;;;;14.37;88.30;99156.91;1801129;78;25612;-81
2022/09/15 03:24:24;;;;;;;12.15;8.80;;;;;;;14.35;88.33;99161.17;1809330;78;25785;-81
2022/09/15 03:26:50;;;;;;;10.03;8.08;;;;;;;14.34;88.36;99159.55;1801268;78;26466;-81
2022/09/15 03:29:17;;;;;;;13.83;9.15;;;;;;;14.34;88.42;99175.72;1821720;78;28251;-82
2022/09/15 03:31:43;;;;;;;14.15;10.35;;;;;;;14.33;88.42;99173.25;1817553;78;25893;-80
2022/09/15 03:34:09;;;;;;;16.07;10.82;;;;;;;14.32;88.45;99176.50;1827982;78;25686;-81
2022/09/15 03:36:36;;;;;;;16.80;9.88;;;;;;;14.33;88.84;99175.41;1813842;78;26433;-80
2022/09/15 03:39:04;;;;;;;15.83;11.10;;;;;;;14.34;89.03;99167.63;1805914;78;25895;-81
2022/09/15 03:41:30;;;;;;;15.30;11.85;;;;;;;14.35;89.12;99161.72;1810265;78;28273;-81
2022/09/15 03:43:56;;;;;;;19.60;13.55;;;;;;;14.39;89.29;99169.04;1819892;78;25245;-81
2022/09/15 03:46:23;;;;;;;21.05;13.83;;;;;;;14.41;89.70;99163.43;1821267;78;25776;-80
2022/09/15 03:48:49;;;;;;;28.92;16.82;;;;;;;14.40;89.84;99165.30;1821659;78;26551;-80
2022/09/15 03:51:15;;;;;;;24.92;15.50;;;;;;;14.43;90.03;99158.61;1815704;78;26239;-81
2022/09/15 03:53:44;;;;;;;26.17;16.87;;;;;;;14.45;90.06;99162.70;1822653;78;27443;-81
2022/09/15 03:56:27;;;;;;;24.15;16.77;;;;;;;14.48;90.11;99160.84;1823741;78;26353;-80
2022/09/15 03:58:53;;;;;;;24.50;15.55;;;;;;;14.51;89.99;99164.40;1815587;78;25853;-79
2022/09/15 04:01:20;;;;;;;40.08;25.10;;;;;;;14.51;89.96;99166.27;1819817;78;25686;-80
2022/09/15 04:03:47;;;;;;;102.65;60.28;;;;;;;14.52;89.86;99164.67;1825513;78;25828;-79
2022/09/15 04:06:14;;;;;;;141.65;87.88;;;;;;;14.52;89.74;99159.83;1807404;78;27435;-81
2022/09/15 04:08:40;;;;;;;87.10;53.17;;;;;;;14.51;89.68;99154.14;1816521;78;25809;-79
2022/09/15 04:11:10;;;;;;;51.30;34.27;;;;;;;14.52;89.62;99160.63;1818661;78;25829;-80
2022/09/15 04:13:39;;;;;;;38.73;26.23;;;;;;;14.52;89.50;99151.75;1810865;78;26291;-82
2022/09/15 04:16:09;;;;;;;26.10;18.25;;;;;;;14.53;89.46;99152.84;1825370;77;25738;-81
2022/09/15 04:18:37;;;;;;;26.93;21.20;;;;;;;14.55;89.37;99145.33;1815769;78;28236;-80
2022/09/15 04:21:09;;;;;;;28.42;18.23;;;;;;;14.54;89.37;99145.58;1815292;78;25911;-81
2022/09/15 04:23:35;;;;;;;22.10;15.95;;;;;;;14.55;89.24;99149.89;1802776;79;25821;-79
2022/09/15 04:26:10;;;;;;;22.22;14.28;;;;;;;14.55;89.14;99150.72;1806843;78;26508;-81
2022/09/15 04:28:37;;;;;;;20.12;13.32;;;;;;;14.54;89.19;99147.72;1794286;79;25873;-80
2022/09/15 04:31:08;;;;;;;22.80;13.65;;;;;;;14.54;89.11;99146.92;1824949;77;27451;-80
2022/09/15 04:33:36;;;;;;;21.97;12.07;;;;;;;14.53;89.08;99146.63;1811677;78;25848;-79
2022/09/15 04:36:08;;;;;;;16.30;11.57;;;;;;;14.51;89.07;99146.88;1800600;77;25794;-82
2022/09/15 04:38:35;;;;;;;17.98;12.68;;;;;;;14.50;89.04;99148.45;1794938;79;26509;-80
2022/09/15 04:41:02;;;;;;;19.50;12.43;;;;;;;14.48;88.98;99154.10;1798397;79;25306;-81
2022/09/15 04:43:29;;;;;;;18.15;11.45;;;;;;;14.48;88.97;99157.31;1818905;78;27446;-79
2022/09/15 04:45:55;;;;;;;20.45;15.40;;;;;;;14.48;89.00;99159.48;1789671;78;26448;-81
2022/09/15 04:48:23;;;;;;;18.62;13.55;;;;;;;14.48;89.03;99159.48;1790973;77;26024;-81
2022/09/15 04:50:49;;;;;;;19.50;14.45;;;;;;;14.50;89.03;99157.89;1802195;79;26097;-81
2022/09/15 04:53:16;;;;;;;25.48;14.70;;;;;;;14.48;89.08;99158.14;1815209;77;25772;-79
2022/09/15 04:55:42;;;;;;;19.65;13.98;;;;;;;14.50;89.21;99157.36;1801955;77;27653;-81
2022/09/15 04:58:09;;;;;;;20.10;14.30;;;;;;;14.52;89.25;99163.88;1821677;78;25730;-79
2022/09/15 05:00:42;;;;;;;20.77;14.65;;;;;;;14.54;89.26;99157.70;1813600;78;25736;-81
2022/09/15 05:03:10;;;;;;;23.30;14.63;;;;;;;14.53;89.31;99153.36;1796079;78;25530;-81
2022/09/15 05:05:37;;;;;;;25.90;15.50;;;;;;;14.53;89.35;99156.88;1800229;79;26639;-81
2022/09/15 05:08:04;;;;;;;23.57;14.53;;;;;;;14.52;89.38;99157.93;1808617;78;27451;-79
2022/09/15 05:10:30;;;;;;;24.90;15.95;;;;;;;14.53;89.45;99163.62;1818958;78;25727;-82
2022/09/15 05:12:56;;;;;;;23.52;15.20;;;;;;;14.55;89.46;99159.32;1810231;78;25849;-79
2022/09/15 05:15:23;;;;;;;21.45;14.60;;;;;;;14.57;89.55;99161.23;1819424;78;25546;-80
2022/09/15 05:17:49;;;;;;;19.77;13.80;;;;;;;14.58;89.65;99165.02;1820576;78;25916;-81
2022/09/15 05:20:16;;;;;;;25.37;14.18;;;;;;;14.59;89.72;99161.28;1808618;78;27517;-81
2022/09/15 05:22:43;;;;;;;20.40;14.30;;;;;;;14.61;89.75;99163.72;1805154;78;25793;-80
2022/09/15 05:25:10;;;;;;;21.82;14.25;;;;;;;14.63;89.80;99161.06;1819877;78;25734;-82
2022/09/15 05:27:38;;;;;;;24.18;13.48;;;;;;;14.66;89.81;99159.76;1822195;78;26294;-80
2022/09/15 05:30:07;;;;;;;20.62;14.20;;;;;;;14.67;89.86;99160.84;1830516;78;25985;-79
2022/09/15 05:32:33;;;;;;;20.40;13.60;;;;;;;14.69;89.91;99156.58;1827798;78;27424;-80
2022/09/15 05:34:59;;;;;;;22.17;15.40;;;;;;;14.73;89.95;99167.67;1802956;78;26453;-80
2022/09/15 05:37:26;;;;;;;24.30;16.90;;;;;;;14.74;90.01;99166.06;1799367;78;25823;-80
2022/09/15 05:39:52;;;;;;;21.23;15.90;;;;;;;14.75;89.92;99169.59;1806673;78;26274;-80
2022/09/15 05:42:18;;;;;;;21.10;15.43;;;;;;;14.75;89.93;99165.02;1830365;78;25926;-81
2022/09/15 05:44:45;;;;;;;20.32;14.87;;;;;;;14.76;89.89;99169.33;1816051;78;27469;-78
2022/09/15 05:47:11;;;;;;;18.85;13.68;;;;;;;14.78;89.90;99173.14;1812373;78;26365;-81
2022/09/15 05:49:37;;;;;;;21.52;13.75;;;;;;;14.79;89.88;99169.37;1810317;78;26419;-80
2022/09/15 05:52:04;;;;;;;23.85;14.47;;;;;;;14.78;89.83;99171.80;1820377;78;25769;-80
2022/09/15 05:54:30;;;;;;;19.10;12.00;;;;;;;14.80;89.94;99172.36;1830900;78;25773;-80
2022/09/15 05:56:56;;;;;;;18.20;12.05;;;;;;;14.82;90.03;99175.63;1828952;78;28283;-81
2022/09/15 05:59:23;;;;;;;18.90;12.05;;;;;;;14.85;89.98;99172.41;1825696;78;25827;-80
2022/09/15 06:01:50;;;;;;;19.17;11.40;;;;;;;14.86;89.97;99173.53;1815827;78;25273;-81
2022/09/15 06:04:16;;;;;;;17.95;11.22;;;;;;;14.89;89.97;99178.94;1829028;78;25750;-80
2022/09/15 06:06:45;;;;;;;17.42;11.68;;;;;;;14.89;89.90;99169.50;1822078;78;26298;-79
2022/09/15 06:09:11;;;;;;;19.45;11.10;;;;;;;14.91;89.88;99173.58;1823972;78;28538;-80
2022/09/15 06:11:37;;;;;;;12.15;9.70;;;;;;;14.92;89.86;99173.88;1826964;78;26208;-80
2022/09/15 06:14:04;;;;;;;18.05;9.58;;;;;;;14.92;89.79;99170.36;1809429;78;26213;-81
2022/09/15 06:16:33;;;;;;;19.55;11.03;;;;;;;14.93;89.79;99175.50;1830152;78;25830;-87
2022/09/15 06:19:00;;;;;;;17.67;9.48;;;;;;;14.95;89.77;99175.27;1805351;78;26429;-83
2022/09/15 06:21:29;;;;;;;18.50;9.45;;;;;;;14.98;89.76;99179.63;1820290;78;28233;-85
2022/09/15 06:23:59;;;;;;;17.32;9.13;;;;;;;15.00;89.67;99180.70;1830689;78;25867;-81
2022/09/15 06:26:27;;;;;;;17.52;9.55;;;;;;;15.01;89.65;99179.66;1818070;78;25699;-80
2022/09/15 06:28:57;;;;;;;17.73;9.23;;;;;;;15.06;89.73;99178.36;1818696;78;26595;-79
2022/09/15 06:31:25;;;;;;;;;;;;;;;15.09;89.61;99176.52;1824281;78;26318;-79
2022/09/15 06:33:54;;;;;;;17.87;8.18;;;;;;;15.11;89.56;99181.95;1818626;78;27433;-79
2022/09/15 06:36:24;;;;;;;19.40;8.85;;;;;;;15.11;89.45;99186.53;1818217;78;25567;-79
2022/09/15 06:38:51;;;;;;;15.98;8.78;;;;;;;15.12;89.39;99194.36;1816268;78;25603;-79
2022/09/15 06:41:18;;;;;;;16.93;8.85;;;;;;;15.17;89.53;99196.30;1808619;78;25850;-80
2022/09/15 06:43:47;;;;;;;16.67;8.35;;;;;;;15.18;89.25;99200.09;1827333;78;25700;-81
2022/09/15 06:46:19;;;;;;;18.07;8.40;;;;;;;15.18;88.95;99197.39;1821895;78;28317;-79
2022/09/15 06:48:46;;;;;;;13.60;8.43;;;;;;;15.22;89.00;99201.78;1825267;78;26349;-80
2022/09/15 06:51:16;;;;;;;16.82;7.85;;;;;;;15.25;89.13;99197.22;1829142;78;25879;-79
2022/09/15 06:53:43;;;;;;;19.03;7.80;;;;;;;15.30;89.09;99197.28;1813412;78;26419;-80
2022/09/15 06:56:17;;;;;;;15.30;7.70;;;;;;;15.35;88.95;99200.85;1799491;78;26444;-80
2022/09/15 06:58:44;;;;;;;15.25;7.83;;;;;;;15.38;88.70;99201.70;1780547;78;28365;-79
2022/09/15 07:01:20;;;;;;;18.45;8.08;;;;;;;15.47;88.75;99201.29;1818758;78;25789;-79
2022/09/15 07:03:47;;;;;;;15.43;7.15;;;;;;;15.53;88.76;99205.15;1810545;78;25968;-77
2022/09/15 07:06:14;;;;;;;12.82;7.40;;;;;;;15.60;88.76;99209.01;1817687;78;25791;-79
2022/09/15 07:08:40;;;;;;;12.23;8.05;;;;;;;15.62;88.48;99207.69;1797285;79;26422;-79
2022/09/15 07:11:10;;;;;;;14.05;7.30;;;;;;;15.67;88.45;99190.21;1816698;78;25920;-79
2022/09/15 07:13:37;;;;;;;11.18;6.35;;;;;;;15.74;88.54;99192.16;1811819;78;25802;-77
2022/09/15 07:16:06;;;;;;;12.98;6.50;;;;;;;15.79;88.05;99200.31;1821702;78;26498;-78
2022/09/15 07:18:34;;;;;;;12.07;5.62;;;;;;;15.84;87.88;99207.13;1831958;77;26278;-79
2022/09/15 07:21:09;;;;;;;13.48;5.65;;;;;;;15.88;87.33;99210.13;1805847;77;26091;-79
2022/09/15 07:23:36;;;;;;;15.50;7.58;;;;;;;15.95;87.40;99208.05;1800681;77;28251;-78
2022/09/15 07:26:14;;;;;;;11.45;5.65;;;;;;;15.98;87.38;99206.17;1837054;77;25884;-79
2022/09/15 07:28:44;;;;;;;12.13;5.80;;;;;;;16.02;87.41;99214.04;1809182;78;25752;-80
2022/09/15 07:31:14;;;;;;;12.45;4.62;;;;;;;16.07;87.40;99209.52;1816555;78;26300;-79
2022/09/15 07:33:41;;;;;;;14.63;4.87;;;;;;;16.10;87.11;99216.30;1818597;78;25736;-79
2022/09/15 07:36:09;;;;;;;16.65;5.28;;;;;;;16.13;86.83;99216.59;1823678;78;27430;-79
2022/09/15 07:38:46;;;;;;;10.80;4.67;;;;;;;16.17;86.76;99219.06;1831447;77;25868;-79
2022/09/15 07:41:20;;;;;;;13.05;4.70;;;;;;;16.23;86.43;99219.91;1833704;77;26505;-80
2022/09/15 07:43:52;;;;;;;11.20;3.77;;;;;;;16.32;86.31;99213.50;1836185;77;25780;-80
2022/09/15 07:46:21;;;;;;;12.53;4.15;;;;;;;16.39;85.00;99216.28;1832628;77;26579;-79
2022/09/15 07:48:51;;;;;;;9.33;4.22;;;;;;;16.44;84.90;99217.69;1833360;77;28234;-80
2022/09/15 07:51:18;;;;;;;9.98;3.72;;;;;;;16.53;84.97;99218.85;1835915;77;25821;-79
2022/09/15 07:53:47;;;;;;;7.70;3.60;;;;;;;16.61;84.83;99221.09;1830036;77;25753;-79
2022/09/15 07:56:17;;;;;;;10.63;2.98;;;;;;;16.69;84.29;99224.66;1837241;77;25977;-80
2022/09/15 07:58:42;;;;;;;10.30;2.52;;;;;;;16.79;84.07;99221.20;1836473;77;25855;-78
2022/09/15 08:01:10;;;;;;;7.90;3.10;;;;;;;16.88;83.66;99222.35;1835020;76;27455;-80
2022/09/15 08:03:43;;;;;;;9.08;2.87;;;;;;;16.98;83.58;99227.81;1830720;77;25745;-79
2022/09/15 08:06:10;;;;;;;8.63;2.80;;;;;;;17.06;82.75;99226.53;1808884;78;26507;-79
2022/09/15 08:08:39;;;;;;;10.08;2.50;;;;;;;17.11;81.60;99227.36;1809258;78;25913;-78
2022/09/15 08:11:08;;;;;;;7.15;2.12;;;;;;;17.16;81.08;99224.69;1807046;77;25730;-80
2022/09/15 08:13:35;;;;;;;7.03;2.45;;;;;;;17.19;80.32;99230.13;1841445;75;28258;-78
2022/09/15 08:16:12;;;;;;;6.95;2.42;;;;;;;17.22;79.89;99230.93;1839224;77;25953;-79
2022/09/15 08:18:41;;;;;;;10.50;2.10;;;;;;;17.29;79.86;99228.81;1812424;77;25896;-84
2022/09/15 08:21:12;;;;;;;5.22;1.85;;;;;;;17.35;79.43;99232.64;1810023;77;25766;-80
2022/09/15 08:23:39;;;;;;;10.82;2.12;;;;;;;17.42;78.97;99232.40;1842342;76;26079;-81
2022/09/15 08:26:08;;;;;;;5.05;1.95;;;;;;;17.49;78.31;99232.41;1828823;77;27427;-78
2022/09/15 08:28:36;;;;;;;;;;;;;;;17.55;78.08;99235.47;1805234;78;26426;-79
2022/09/15 08:31:07;;;;;;;10.08;3.65;;;;;;;17.62;77.85;99238.73;1817265;78;25834;-79
2022/09/15 08:33:34;;;;;;;7.40;2.58;;;;;;;17.65;77.16;99238.21;1810939;78;25848;-79
2022/09/15 08:36:09;;;;;;;6.05;2.02;;;;;;;17.66;76.15;99237.11;1802725;78;26459;-87
2022/09/15 08:38:39;;;;;;;9.68;2.20;;;;;;;17.72;75.93;99235.25;1796046;78;27600;-75
2022/09/15 08:41:22;;;;;;;10.25;4.65;;;;;;;17.75;74.66;99229.85;1803873;78;25876;-76
2022/09/15 08:44:03;;;;;;;9.78;1.90;;;;;;;17.78;75.17;99236.08;1788147;78;25800;-77
2022/09/15 08:46:38;;;;;;;4.87;1.70;;;;;;;17.83;74.89;99237.45;1823653;77;25529;-77
2022/09/15 08:49:23;;;;;;;6.92;1.80;;;;;;;17.88;74.35;99230.70;1834190;75;25815;-77
2022/09/15 08:51:51;;;;;;;4.87;1.62;;;;;;;17.94;74.12;99233.13;1829225;77;27446;-76
2022/09/15 08:54:22;;;;;;;5.87;2.17;;;;;;;18.01;74.05;99241.83;1841232;75;25871;-80
2022/09/15 08:56:50;;;;;;;6.10;2.33;;;;;;;18.07;73.28;99233.19;1838023;75;25821;-79
2022/09/15 08:59:19;;;;;;;14.85;5.15;;;;;;;18.11;72.84;99239.13;1833333;77;26253;-78
2022/09/15 09:02:10;;;;;;;6.92;2.27;;;;;;;18.15;73.29;99232.12;1792390;77;25498;-79
2022/09/15 09:05:18;;;;;;;6.58;1.90;;;;;;;18.25;73.82;99243.50;1850840;77;27408;-79
2022/09/15 09:08:36;;;;;;;9.43;2.37;;;;;;;18.31;73.01;99241.06;1847913;77;25738;-82
2022/09/15 09:11:20;;;;;;;6.00;1.50;;;;;;;18.35;72.48;99241.61;1834141;77;26381;-79
2022/09/15 09:14:25;;;;;;;4.45;1.47;;;;;;;18.25;70.95;99237.55;1824175;77;25718;-77
2022/09/15 09:17:35;;;;;;;5.08;1.80;;;;;;;18.21;71.18;99247.30;1837871;77;26154;-76
2022/09/15 09:20:32;;;;;;;3.47;1.57;;;;;;;18.29;71.47;99245.94;1815849;77;27553;-79
2022/09/15 09:23:03;;;;;;;3.72;1.65;;;;;;;18.40;71.69;99241.63;1818042;77;25892;-79
2022/09/15 09:25:30;;;;;;;6.80;1.80;;;;;;;18.47;71.23;99242.75;1803802;78;25821;-78
2022/09/15 09:27:57;;;;;;;6.15;2.45;;;;;;;18.55;71.93;99241.38;1810880;78;26264;-78
2022/09/15 09:30:28;;;;;;;7.40;2.25;;;;;;;18.57;71.40;99233.78;1817288;78;25706;-78
2022/09/15 09:33:23;;;;;;;6.97;1.70;;;;;;;18.62;71.33;99229.72;1795620;78;27468;-79
2022/09/15 09:35:51;;;;;;;5.55;2.05;;;;;;;18.64;70.59;99235.69;1825455;78;25749;-79
2022/09/15 09:38:31;;;;;;;5.80;1.75;;;;;;;18.63;69.96;99241.65;1807050;78;25802;-80
2022/09/15 09:40:58;;;;;;;5.15;1.50;;;;;;;18.64;70.10;99247.89;1818324;78;26134;-81
2022/09/15 09:43:26;;;;;;;6.42;1.67;;;;;;;18.63;69.14;99242.19;1820423;78;26301;-82
2022/09/15 09:45:53;;;;;;;7.85;1.55;;;;;;;18.65;69.62;99234.62;1810729;78;27526;-81
2022/09/15 09:48:23;;;;;;;2.92;1.42;;;;;;;18.65;69.08;99227.27;1817949;78;25772;-81
2022/09/15 09:50:50;;;;;;;6.40;1.50;;;;;;;18.68;68.80;99228.09;1813297;78;25726;-79
2022/09/15 09:53:35;;;;;;;4.35;1.70;;;;;;;18.77;69.23;99230.54;1806743;78;26588;-80
2022/09/15 09:56:19;;;;;;;4.12;1.45;;;;;;;18.83;68.95;99225.91;1810967;78;25931;-79
2022/09/15 09:58:45;;;;;;;6.85;1.77;;;;;;;18.87;68.61;99220.20;1814786;78;27405;-79
2022/09/15 10:01:20;;;;;;;5.30;2.10;;;;;;;18.90;68.92;99214.23;1812725;78;26044;-80
2022/09/15 10:03:46;;;;;;;6.17;2.02;;;;;;;18.96;68.15;99219.38;1825913;78;25254;-79
2022/09/15 10:06:21;;;;;;;6.90;2.58;;;;;;;18.95;67.72;99222.35;1820698;78;25713;-80
2022/09/15 10:09:03;;;;;;;15.95;9.03;;;;;;;18.96;68.06;99222.09;1802214;78;26138;-80
2022/09/15 10:11:53;;;;;;;17.25;7.17;;;;;;;18.99;67.23;99228.31;1812241;78;28572;-79
2022/09/15 10:14:34;;;;;;;8.60;3.10;;;;;;;19.07;67.95;99219.64;1798914;79;25796;-79
2022/09/15 10:17:12;;;;;;;5.08;2.08;;;;;;;19.21;68.26;99217.95;1802896;78;25827;-78
2022/09/15 10:19:54;;;;;;;4.90;2.27;;;;;;;19.36;68.33;99217.66;1797447;78;25801;-79
2022/09/15 10:22:34;;;;;;;7.60;1.95;;;;;;;19.43;66.98;99219.00;1803995;78;25821;-79
2022/09/15 10:25:06;;;;;;;5.08;2.08;;;;;;;19.40;66.71;99228.23;1802846;78;28260;-79
2022/09/15 10:27:35;;;;;;;5.58;1.75;;;;;;;19.43;67.21;99229.87;1779516;78;25748;-79
2022/09/15 10:30:18;;;;;;;9.90;2.30;;;;;;;19.46;66.86;99225.22;1796288;79;25790;-79
2022/09/15 10:32:44;;;;;;;5.67;1.85;;;;;;;19.46;66.32;99214.36;1812598;77;25803;-79
2022/09/15 10:35:19;;;;;;;3.02;1.70;;;;;;;19.47;65.98;99212.46;1792145;78;25687;-78
2022/09/15 10:38:12;;;;;;;6.20;1.60;;;;;;;19.44;65.22;99215.75;1794468;78;28337;-79
2022/09/15 10:40:47;;;;;;;4.22;1.47;;;;;;;19.41;65.43;99222.55;1797967;78;25781;-78
2022/09/15 10:43:25;;;;;;;5.70;1.47;;;;;;;19.37;64.98;99228.27;1799469;78;26145;-78
2022/09/15 10:46:03;;;;;;;6.30;1.85;;;;;;;19.29;64.80;99220.63;1789958;79;25697;-78
2022/09/15 10:49:08;;;;;;;5.97;1.60;;;;;;;19.26;65.10;99217.13;1778707;78;27027;-78
2022/09/15 10:51:49;;;;;;;3.70;1.47;;;;;;;19.25;64.37;99214.13;1814924;77;27450;-80
2022/09/15 10:54:30;;;;;;;6.10;1.98;;;;;;;19.21;65.14;99219.31;1793698;78;26265;-79
2022/09/15 10:57:02;;;;;;;5.45;1.60;;;;;;;19.17;64.69;99220.96;1791021;78;25786;-80
2022/09/15 10:59:43;;;;;;;5.03;1.70;;;;;;;19.10;64.74;99227.20;1787167;78;26331;-79
2022/09/15 11:02:37;;;;;;;6.28;2.00;;;;;;;19.06;64.98;99225.31;1800217;78;26013;-80
2022/09/15 11:05:48;;;;;;;5.55;1.87;;;;;;;19.08;65.44;99228.56;1790124;79;27437;-79
2022/09/15 11:08:37;;;;;;;5.58;1.80;;;;;;;19.10;65.14;99226.39;1803004;78;25680;-78
2022/09/15 11:11:39;;;;;;;7.28;2.00;;;;;;;19.13;65.63;99225.31;1819257;78;25833;-79
2022/09/15 11:14:16;;;;;;;3.95;2.37;;;;;;;19.21;65.37;99222.03;1819189;78;25817;-78
2022/09/15 11:17:08;;;;;;;7.17;1.92;;;;;;;19.31;65.69;99215.73;1803937;78;26519;-82
2022/09/15 11:19:55;;;;;;;5.55;1.80;;;;;;;19.37;65.30;99214.69;1825752;77;27507;-86
2022/09/15 11:22:47;;;;;;;2.90;1.57;;;;;;;19.38;65.35;99213.58;1839407;77;26012;-81
2022/09/15 11:28:49;;;;;;;5.37;2.40;;;;;;;19.32;65.54;99216.02;1786825;77;26488;-79
2022/09/15 11:31:38;;;;;;;7.47;2.17;;;;;;;19.33;66.00;99217.66;1789756;79;25935;-85
2022/09/15 11:34:16;;;;;;;8.63;2.08;;;;;;;19.28;65.46;99217.66;1792014;78;28475;-80
2022/09/15 11:37:00;;;;;;;7.08;1.65;;;;;;;19.31;65.97;99213.59;1772330;80;25720;-80
2022/09/15 11:39:57;;;;;;;8.00;2.22;;;;;;;19.38;66.10;99205.44;1792808;78;26329;-82
2022/09/15 11:42:35;;;;;;;3.52;1.60;;;;;;;19.42;66.02;99213.86;1791451;78;25918;-87
2022/09/15 11:45:07;;;;;;;5.22;1.85;;;;;;;19.46;65.65;99205.42;1718575;80;25864;-80
2022/09/15 11:47:39;;;;;;;6.08;1.70;;;;;;;19.51;65.42;99202.66;1769432;79;28430;-81
2022/09/15 11:50:26;;;;;;;7.67;1.75;;;;;;;19.55;65.38;99201.83;1792458;78;25848;-81
2022/09/15 11:53:31;;;;;;;5.70;1.65;;;;;;;19.55;64.90;99198.30;1766219;79;25889;-81
2022/09/15 11:56:15;;;;;;;4.62;1.60;;;;;;;19.48;63.82;99197.23;1758919;78;26729;-78